sensor_id;sensor_type;location;lat;lon;timestamp;P1;durP1;ratioP1;P2;durP2;ratioP2
8317;SDS011;4196;48.926;8.964;2022-09-24T00:02:20;8.37;;;5.60;;
8317;SDS011;4196;48.926;8.964;2022-09-24T00:05:07;11.23;;;6.03;;
8317;SDS011;4196;48.926;8.964;2022-09-24T00:07:53;8.23;;;4.93;;
8317;SDS011;4196;48.926;8.964;2022-09-24T00:10:40;7.17;;;5.80;;
8317;SDS011;4196;48.926;8.964;2022-09-24T00:13:27;8.43;;;5.00;;
8317;SDS011;4196;48.926;8.964;2022-09-24T00:16:15;7.20;;;5.33;;
8317;SDS011;4196;48.926;8.964;2022-09-24T00:19:02;6.43;;;5.17;;
8317;SDS011;4196;48.926;8.964;2022-09-24T00:21:49;7.17;;;4.73;;
8317;SDS011;4196;48.926;8.964;2022-09-24T00:24:35;7.80;;;5.40;;
8317;SDS011;4196;48.926;8.964;2022-09-24T00:27:40;5.90;;;4.93;;
8317;SDS011;4196;48.926;8.964;2022-09-24T00:30:26;6.67;;;4.57;;
8317;SDS011;4196;48.926;8.964;2022-09-24T00:33:13;7.17;;;5.37;;
8317;SDS011;4196;48.926;8.964;2022-09-24T00:36:01;7.20;;;5.43;;
8317;SDS011;4196;48.926;8.964;2022-09-24T00:38:54;7.87;;;5.07;;
8317;SDS011;4196;48.926;8.964;2022-09-24T00:41:43;8.80;;;6.00;;
8317;SDS011;4196;48.926;8.964;2022-09-24T00:47:32;8.03;;;5.20;;
8317;SDS011;4196;48.926;8.964;2022-09-24T00:53:20;6.60;;;4.83;;
8317;SDS011;4196;48.926;8.964;2022-09-24T00:56:14;7.57;;;5.63;;
8317;SDS011;4196;48.926;8.964;2022-09-24T00:59:02;6.73;;;4.67;;
8317;SDS011;4196;48.926;8.964;2022-09-24T01:01:51;7.60;;;5.73;;
8317;SDS011;4196;48.926;8.964;2022-09-24T01:04:42;8.87;;;5.23;;
8317;SDS011;4196;48.926;8.964;2022-09-24T01:07:29;8.27;;;5.03;;
8317;SDS011;4196;48.926;8.964;2022-09-24T01:10:15;8.17;;;5.07;;
8317;SDS011;4196;48.926;8.964;2022-09-24T01:16:38;8.10;;;5.70;;
8317;SDS011;4196;48.926;8.964;2022-09-24T01:19:39;8.77;;;5.40;;
8317;SDS011;4196;48.926;8.964;2022-09-24T01:25:40;7.10;;;6.00;;
8317;SDS011;4196;48.926;8.964;2022-09-24T01:29:02;9.47;;;5.57;;
8317;SDS011;4196;48.926;8.964;2022-09-24T01:32:06;9.17;;;5.50;;
8317;SDS011;4196;48.926;8.964;2022-09-24T01:35:00;12.53;;;5.50;;
8317;SDS011;4196;48.926;8.964;2022-09-24T01:37:50;7.77;;;5.57;;
8317;SDS011;4196;48.926;8.964;2022-09-24T01:40:53;8.33;;;5.67;;
8317;SDS011;4196;48.926;8.964;2022-09-24T01:43:44;10.93;;;7.13;;
8317;SDS011;4196;48.926;8.964;2022-09-24T01:46:30;9.13;;;5.93;;
8317;SDS011;4196;48.926;8.964;2022-09-24T01:52:32;16.50;;;6.80;;
8317;SDS011;4196;48.926;8.964;2022-09-24T01:55:23;8.67;;;5.73;;
8317;SDS011;4196;48.926;8.964;2022-09-24T01:58:14;9.43;;;6.20;;
8317;SDS011;4196;48.926;8.964;2022-09-24T02:01:26;13.03;;;6.20;;
8317;SDS011;4196;48.926;8.964;2022-09-24T02:04:21;7.90;;;6.33;;
8317;SDS011;4196;48.926;8.964;2022-09-24T02:07:16;9.67;;;6.60;;
8317;SDS011;4196;48.926;8.964;2022-09-24T02:10:17;8.90;;;5.57;;
8317;SDS011;4196;48.926;8.964;2022-09-24T02:13:06;7.73;;;5.70;;
8317;SDS011;4196;48.926;8.964;2022-09-24T02:15:59;10.13;;;5.43;;
8317;SDS011;4196;48.926;8.964;2022-09-24T02:18:51;10.13;;;6.37;;
8317;SDS011;4196;48.926;8.964;2022-09-24T02:21:42;8.67;;;5.57;;
8317;SDS011;4196;48.926;8.964;2022-09-24T02:24:32;7.23;;;5.30;;
8317;SDS011;4196;48.926;8.964;2022-09-24T02:27:25;7.20;;;5.33;;
8317;SDS011;4196;48.926;8.964;2022-09-24T02:30:15;9.87;;;6.50;;
8317;SDS011;4196;48.926;8.964;2022-09-24T02:33:04;8.80;;;5.90;;
8317;SDS011;4196;48.926;8.964;2022-09-24T02:36:13;7.07;;;5.23;;
8317;SDS011;4196;48.926;8.964;2022-09-24T02:38:59;8.73;;;5.80;;
8317;SDS011;4196;48.926;8.964;2022-09-24T02:41:47;7.93;;;5.67;;
8317;SDS011;4196;48.926;8.964;2022-09-24T02:44:35;11.03;;;5.50;;
8317;SDS011;4196;48.926;8.964;2022-09-24T02:47:21;8.00;;;5.13;;
8317;SDS011;4196;48.926;8.964;2022-09-24T02:50:08;7.47;;;5.43;;
8317;SDS011;4196;48.926;8.964;2022-09-24T02:52:54;8.03;;;5.07;;
8317;SDS011;4196;48.926;8.964;2022-09-24T02:55:41;6.77;;;5.07;;
8317;SDS011;4196;48.926;8.964;2022-09-24T02:58:32;7.50;;;4.80;;
8317;SDS011;4196;48.926;8.964;2022-09-24T03:01:22;7.43;;;5.23;;
8317;SDS011;4196;48.926;8.964;2022-09-24T03:04:09;7.13;;;5.03;;
8317;SDS011;4196;48.926;8.964;2022-09-24T03:06:56;6.83;;;5.20;;
8317;SDS011;4196;48.926;8.964;2022-09-24T03:09:42;7.10;;;4.70;;
8317;SDS011;4196;48.926;8.964;2022-09-24T03:12:29;7.07;;;5.47;;
8317;SDS011;4196;48.926;8.964;2022-09-24T03:15:15;7.90;;;5.90;;
8317;SDS011;4196;48.926;8.964;2022-09-24T03:18:02;6.40;;;5.37;;
8317;SDS011;4196;48.926;8.964;2022-09-24T03:21:05;7.50;;;5.30;;
8317;SDS011;4196;48.926;8.964;2022-09-24T03:23:53;11.63;;;6.00;;
8317;SDS011;4196;48.926;8.964;2022-09-24T03:26:39;6.60;;;5.50;;
8317;SDS011;4196;48.926;8.964;2022-09-24T03:29:26;7.27;;;5.50;;
8317;SDS011;4196;48.926;8.964;2022-09-24T03:32:31;9.33;;;5.50;;
8317;SDS011;4196;48.926;8.964;2022-09-24T03:35:18;6.43;;;5.67;;
8317;SDS011;4196;48.926;8.964;2022-09-24T03:38:05;7.13;;;5.33;;
8317;SDS011;4196;48.926;8.964;2022-09-24T03:40:52;6.67;;;5.40;;
8317;SDS011;4196;48.926;8.964;2022-09-24T03:43:38;7.97;;;5.27;;
8317;SDS011;4196;48.926;8.964;2022-09-24T03:46:25;6.67;;;5.10;;
8317;SDS011;4196;48.926;8.964;2022-09-24T03:49:13;7.03;;;5.40;;
8317;SDS011;4196;48.926;8.964;2022-09-24T03:52:00;6.17;;;5.10;;
8317;SDS011;4196;48.926;8.964;2022-09-24T03:54:46;6.00;;;5.10;;
8317;SDS011;4196;48.926;8.964;2022-09-24T03:57:33;6.60;;;4.83;;
8317;SDS011;4196;48.926;8.964;2022-09-24T04:00:20;5.80;;;4.90;;
8317;SDS011;4196;48.926;8.964;2022-09-24T04:03:09;6.67;;;5.30;;
8317;SDS011;4196;48.926;8.964;2022-09-24T04:05:56;7.87;;;5.17;;
8317;SDS011;4196;48.926;8.964;2022-09-24T04:08:42;7.03;;;5.37;;
8317;SDS011;4196;48.926;8.964;2022-09-24T04:11:29;7.90;;;5.17;;
8317;SDS011;4196;48.926;8.964;2022-09-24T04:14:15;9.47;;;5.30;;
8317;SDS011;4196;48.926;8.964;2022-09-24T04:17:02;6.50;;;5.33;;
8317;SDS011;4196;48.926;8.964;2022-09-24T04:19:48;9.30;;;5.30;;
8317;SDS011;4196;48.926;8.964;2022-09-24T04:22:36;8.00;;;5.83;;
8317;SDS011;4196;48.926;8.964;2022-09-24T04:25:22;7.13;;;5.43;;
8317;SDS011;4196;48.926;8.964;2022-09-24T04:28:10;9.13;;;5.50;;
8317;SDS011;4196;48.926;8.964;2022-09-24T04:30:56;8.80;;;5.53;;
8317;SDS011;4196;48.926;8.964;2022-09-24T04:33:43;7.20;;;5.80;;
8317;SDS011;4196;48.926;8.964;2022-09-24T04:36:29;9.13;;;6.17;;
8317;SDS011;4196;48.926;8.964;2022-09-24T04:39:15;7.50;;;5.63;;
8317;SDS011;4196;48.926;8.964;2022-09-24T04:42:02;11.23;;;5.27;;
8317;SDS011;4196;48.926;8.964;2022-09-24T04:44:48;9.17;;;6.53;;
8317;SDS011;4196;48.926;8.964;2022-09-24T04:47:40;8.90;;;7.57;;
8317;SDS011;4196;48.926;8.964;2022-09-24T04:50:28;8.10;;;6.20;;
8317;SDS011;4196;48.926;8.964;2022-09-24T04:53:18;7.37;;;6.07;;
8317;SDS011;4196;48.926;8.964;2022-09-24T04:56:04;8.30;;;6.00;;
8317;SDS011;4196;48.926;8.964;2022-09-24T04:58:57;11.00;;;6.20;;
8317;SDS011;4196;48.926;8.964;2022-09-24T05:01:44;7.87;;;5.60;;
8317;SDS011;4196;48.926;8.964;2022-09-24T05:04:31;7.60;;;5.77;;
8317;SDS011;4196;48.926;8.964;2022-09-24T05:07:17;9.90;;;5.80;;
8317;SDS011;4196;48.926;8.964;2022-09-24T05:10:04;7.63;;;5.67;;
8317;SDS011;4196;48.926;8.964;2022-09-24T05:12:51;8.27;;;6.47;;
8317;SDS011;4196;48.926;8.964;2022-09-24T05:15:38;6.37;;;5.13;;
8317;SDS011;4196;48.926;8.964;2022-09-24T05:18:28;8.50;;;5.80;;
8317;SDS011;4196;48.926;8.964;2022-09-24T05:21:15;9.73;;;5.93;;
8317;SDS011;4196;48.926;8.964;2022-09-24T05:24:01;10.53;;;5.50;;
8317;SDS011;4196;48.926;8.964;2022-09-24T05:26:48;8.03;;;5.73;;
8317;SDS011;4196;48.926;8.964;2022-09-24T05:29:53;7.73;;;5.30;;
8317;SDS011;4196;48.926;8.964;2022-09-24T05:32:39;9.83;;;6.60;;
8317;SDS011;4196;48.926;8.964;2022-09-24T05:35:26;8.43;;;5.83;;
8317;SDS011;4196;48.926;8.964;2022-09-24T05:38:12;10.20;;;6.17;;
8317;SDS011;4196;48.926;8.964;2022-09-24T05:40:58;6.63;;;5.23;;
8317;SDS011;4196;48.926;8.964;2022-09-24T05:43:45;10.93;;;6.53;;
8317;SDS011;4196;48.926;8.964;2022-09-24T05:46:31;10.80;;;6.30;;
8317;SDS011;4196;48.926;8.964;2022-09-24T05:49:18;9.97;;;7.20;;
8317;SDS011;4196;48.926;8.964;2022-09-24T05:52:05;8.37;;;6.67;;
8317;SDS011;4196;48.926;8.964;2022-09-24T05:54:51;10.60;;;6.73;;
8317;SDS011;4196;48.926;8.964;2022-09-24T05:57:38;12.97;;;6.70;;
8317;SDS011;4196;48.926;8.964;2022-09-24T06:00:24;9.37;;;6.93;;
8317;SDS011;4196;48.926;8.964;2022-09-24T06:03:14;9.30;;;6.03;;
8317;SDS011;4196;48.926;8.964;2022-09-24T06:06:02;11.20;;;5.77;;
8317;SDS011;4196;48.926;8.964;2022-09-24T06:08:48;9.40;;;7.03;;
8317;SDS011;4196;48.926;8.964;2022-09-24T06:11:34;10.97;;;7.10;;
8317;SDS011;4196;48.926;8.964;2022-09-24T06:14:26;11.67;;;6.57;;
8317;SDS011;4196;48.926;8.964;2022-09-24T06:17:17;11.03;;;6.53;;
8317;SDS011;4196;48.926;8.964;2022-09-24T06:20:04;10.60;;;6.47;;
8317;SDS011;4196;48.926;8.964;2022-09-24T06:22:55;12.47;;;5.87;;
8317;SDS011;4196;48.926;8.964;2022-09-24T06:25:42;7.43;;;4.97;;
8317;SDS011;4196;48.926;8.964;2022-09-24T06:28:29;6.93;;;5.40;;
8317;SDS011;4196;48.926;8.964;2022-09-24T06:31:15;7.97;;;5.10;;
8317;SDS011;4196;48.926;8.964;2022-09-24T06:34:02;8.50;;;5.30;;
8317;SDS011;4196;48.926;8.964;2022-09-24T06:36:52;8.33;;;5.60;;
8317;SDS011;4196;48.926;8.964;2022-09-24T06:39:39;9.70;;;5.80;;
8317;SDS011;4196;48.926;8.964;2022-09-24T06:42:26;7.20;;;5.50;;
8317;SDS011;4196;48.926;8.964;2022-09-24T06:45:14;11.40;;;6.50;;
8317;SDS011;4196;48.926;8.964;2022-09-24T06:48:01;10.53;;;6.37;;
8317;SDS011;4196;48.926;8.964;2022-09-24T06:50:49;6.10;;;5.47;;
8317;SDS011;4196;48.926;8.964;2022-09-24T06:53:36;9.73;;;6.17;;
8317;SDS011;4196;48.926;8.964;2022-09-24T06:56:23;8.93;;;6.30;;
8317;SDS011;4196;48.926;8.964;2022-09-24T06:59:10;9.97;;;6.33;;
8317;SDS011;4196;48.926;8.964;2022-09-24T07:01:56;7.57;;;5.53;;
8317;SDS011;4196;48.926;8.964;2022-09-24T07:04:44;6.43;;;5.77;;
8317;SDS011;4196;48.926;8.964;2022-09-24T07:07:30;11.10;;;6.67;;
8317;SDS011;4196;48.926;8.964;2022-09-24T07:10:20;7.07;;;5.47;;
8317;SDS011;4196;48.926;8.964;2022-09-24T07:13:06;8.20;;;5.97;;
8317;SDS011;4196;48.926;8.964;2022-09-24T07:15:53;9.23;;;6.03;;
8317;SDS011;4196;48.926;8.964;2022-09-24T07:18:39;11.63;;;6.73;;
8317;SDS011;4196;48.926;8.964;2022-09-24T07:21:25;8.17;;;5.97;;
8317;SDS011;4196;48.926;8.964;2022-09-24T07:24:12;10.10;;;6.30;;
8317;SDS011;4196;48.926;8.964;2022-09-24T07:26:58;7.60;;;6.20;;
8317;SDS011;4196;48.926;8.964;2022-09-24T07:29:44;9.07;;;6.23;;
8317;SDS011;4196;48.926;8.964;2022-09-24T07:32:31;9.40;;;6.77;;
8317;SDS011;4196;48.926;8.964;2022-09-24T07:35:17;11.63;;;6.70;;
8317;SDS011;4196;48.926;8.964;2022-09-24T07:38:07;8.20;;;6.63;;
8317;SDS011;4196;48.926;8.964;2022-09-24T07:40:57;9.07;;;6.30;;
8317;SDS011;4196;48.926;8.964;2022-09-24T07:43:44;9.47;;;6.47;;
8317;SDS011;4196;48.926;8.964;2022-09-24T07:46:30;8.80;;;5.80;;
8317;SDS011;4196;48.926;8.964;2022-09-24T07:49:17;9.47;;;6.43;;
8317;SDS011;4196;48.926;8.964;2022-09-24T07:52:03;10.03;;;7.00;;
8317;SDS011;4196;48.926;8.964;2022-09-24T07:54:50;8.97;;;7.07;;
8317;SDS011;4196;48.926;8.964;2022-09-24T07:57:37;9.57;;;6.53;;
8317;SDS011;4196;48.926;8.964;2022-09-24T08:00:24;7.80;;;6.13;;
8317;SDS011;4196;48.926;8.964;2022-09-24T08:03:10;9.00;;;6.30;;
8317;SDS011;4196;48.926;8.964;2022-09-24T08:05:57;8.70;;;6.67;;
8317;SDS011;4196;48.926;8.964;2022-09-24T08:08:47;17.97;;;6.80;;
8317;SDS011;4196;48.926;8.964;2022-09-24T08:11:34;8.73;;;6.20;;
8317;SDS011;4196;48.926;8.964;2022-09-24T08:14:20;11.10;;;5.77;;
8317;SDS011;4196;48.926;8.964;2022-09-24T08:17:06;9.70;;;7.70;;
8317;SDS011;4196;48.926;8.964;2022-09-24T08:19:53;7.93;;;6.07;;
8317;SDS011;4196;48.926;8.964;2022-09-24T08:22:42;7.93;;;6.07;;
8317;SDS011;4196;48.926;8.964;2022-09-24T08:25:29;9.13;;;6.47;;
8317;SDS011;4196;48.926;8.964;2022-09-24T08:28:16;7.03;;;5.87;;
8317;SDS011;4196;48.926;8.964;2022-09-24T08:31:09;8.77;;;6.27;;
8317;SDS011;4196;48.926;8.964;2022-09-24T08:33:57;8.40;;;6.30;;
8317;SDS011;4196;48.926;8.964;2022-09-24T08:36:46;8.13;;;6.30;;
8317;SDS011;4196;48.926;8.964;2022-09-24T08:39:39;7.60;;;5.63;;
8317;SDS011;4196;48.926;8.964;2022-09-24T08:42:41;9.77;;;6.00;;
8317;SDS011;4196;48.926;8.964;2022-09-24T08:45:38;9.50;;;6.63;;
8317;SDS011;4196;48.926;8.964;2022-09-24T08:49:04;7.47;;;6.67;;
8317;SDS011;4196;48.926;8.964;2022-09-24T08:52:00;9.37;;;7.03;;
8317;SDS011;4196;48.926;8.964;2022-09-24T08:54:55;6.67;;;5.53;;
8317;SDS011;4196;48.926;8.964;2022-09-24T08:57:57;10.13;;;6.63;;
8317;SDS011;4196;48.926;8.964;2022-09-24T09:01:05;6.37;;;5.40;;
8317;SDS011;4196;48.926;8.964;2022-09-24T09:04:01;7.80;;;6.30;;
8317;SDS011;4196;48.926;8.964;2022-09-24T09:07:10;10.50;;;6.40;;
8317;SDS011;4196;48.926;8.964;2022-09-24T09:10:27;8.57;;;6.17;;
8317;SDS011;4196;48.926;8.964;2022-09-24T09:13:22;6.47;;;5.70;;
8317;SDS011;4196;48.926;8.964;2022-09-24T09:16:26;7.37;;;5.90;;
8317;SDS011;4196;48.926;8.964;2022-09-24T09:19:33;9.47;;;5.87;;
8317;SDS011;4196;48.926;8.964;2022-09-24T09:22:20;10.97;;;6.60;;
8317;SDS011;4196;48.926;8.964;2022-09-24T09:25:16;7.77;;;5.67;;
8317;SDS011;4196;48.926;8.964;2022-09-24T09:28:10;8.63;;;6.13;;
8317;SDS011;4196;48.926;8.964;2022-09-24T09:33:59;7.07;;;6.20;;
8317;SDS011;4196;48.926;8.964;2022-09-24T09:37:02;8.43;;;5.77;;
8317;SDS011;4196;48.926;8.964;2022-09-24T09:39:55;8.00;;;6.03;;
8317;SDS011;4196;48.926;8.964;2022-09-24T09:43:09;10.23;;;5.93;;
8317;SDS011;4196;48.926;8.964;2022-09-24T09:48:52;8.37;;;5.83;;
8317;SDS011;4196;48.926;8.964;2022-09-24T09:51:43;8.67;;;6.07;;
8317;SDS011;4196;48.926;8.964;2022-09-24T09:54:37;7.40;;;5.53;;
8317;SDS011;4196;48.926;8.964;2022-09-24T09:57:24;7.77;;;5.47;;
8317;SDS011;4196;48.926;8.964;2022-09-24T10:00:22;6.73;;;5.43;;
8317;SDS011;4196;48.926;8.964;2022-09-24T10:06:06;6.97;;;5.23;;
8317;SDS011;4196;48.926;8.964;2022-09-24T10:08:53;8.60;;;5.50;;
8317;SDS011;4196;48.926;8.964;2022-09-24T10:11:51;6.60;;;5.10;;
8317;SDS011;4196;48.926;8.964;2022-09-24T10:14:37;8.33;;;6.17;;
8317;SDS011;4196;48.926;8.964;2022-09-24T10:17:25;8.70;;;5.83;;
8317;SDS011;4196;48.926;8.964;2022-09-24T10:23:07;9.60;;;5.00;;
8317;SDS011;4196;48.926;8.964;2022-09-24T10:26:06;7.20;;;5.50;;
8317;SDS011;4196;48.926;8.964;2022-09-24T10:28:53;8.30;;;6.00;;
8317;SDS011;4196;48.926;8.964;2022-09-24T10:31:58;7.47;;;5.23;;
8317;SDS011;4196;48.926;8.964;2022-09-24T10:37:49;5.93;;;5.00;;
8317;SDS011;4196;48.926;8.964;2022-09-24T10:40:38;6.47;;;5.23;;
8317;SDS011;4196;48.926;8.964;2022-09-24T10:43:26;10.13;;;6.00;;
8317;SDS011;4196;48.926;8.964;2022-09-24T10:46:16;7.37;;;5.37;;
8317;SDS011;4196;48.926;8.964;2022-09-24T10:52:56;6.87;;;5.60;;
8317;SDS011;4196;48.926;8.964;2022-09-24T10:56:00;7.57;;;5.50;;
8317;SDS011;4196;48.926;8.964;2022-09-24T11:05:23;7.57;;;5.73;;
8317;SDS011;4196;48.926;8.964;2022-09-24T11:20:42;8.83;;;6.20;;
8317;SDS011;4196;48.926;8.964;2022-09-24T11:24:02;6.73;;;5.87;;
8317;SDS011;4196;48.926;8.964;2022-09-24T11:57:17;15.00;;;7.63;;
8317;SDS011;4196;48.926;8.964;2022-09-24T12:00:13;9.10;;;7.13;;
8317;SDS011;4196;48.926;8.964;2022-09-24T12:06:19;10.70;;;6.80;;
8317;SDS011;4196;48.926;8.964;2022-09-24T12:09:16;9.33;;;6.77;;
8317;SDS011;4196;48.926;8.964;2022-09-24T12:12:13;11.60;;;8.17;;
8317;SDS011;4196;48.926;8.964;2022-09-24T12:18:08;11.40;;;8.30;;
8317;SDS011;4196;48.926;8.964;2022-09-24T12:21:09;11.93;;;9.17;;
8317;SDS011;4196;48.926;8.964;2022-09-24T12:27:21;9.50;;;7.53;;
8317;SDS011;4196;48.926;8.964;2022-09-24T12:30:35;10.63;;;8.60;;
8317;SDS011;4196;48.926;8.964;2022-09-24T12:33:52;11.33;;;8.33;;
8317;SDS011;4196;48.926;8.964;2022-09-24T12:36:56;12.57;;;9.13;;
8317;SDS011;4196;48.926;8.964;2022-09-24T12:40:02;13.17;;;8.70;;
8317;SDS011;4196;48.926;8.964;2022-09-24T12:42:55;13.20;;;9.20;;
8317;SDS011;4196;48.926;8.964;2022-09-24T12:45:43;12.47;;;9.03;;
8317;SDS011;4196;48.926;8.964;2022-09-24T12:48:31;16.03;;;8.93;;
8317;SDS011;4196;48.926;8.964;2022-09-24T12:51:23;12.57;;;8.40;;
8317;SDS011;4196;48.926;8.964;2022-09-24T12:54:30;12.87;;;8.83;;
8317;SDS011;4196;48.926;8.964;2022-09-24T12:57:20;10.40;;;7.73;;
8317;SDS011;4196;48.926;8.964;2022-09-24T13:03:27;11.17;;;7.77;;
8317;SDS011;4196;48.926;8.964;2022-09-24T13:06:41;13.80;;;8.57;;
8317;SDS011;4196;48.926;8.964;2022-09-24T13:09:34;10.43;;;8.17;;
8317;SDS011;4196;48.926;8.964;2022-09-24T13:12:29;12.53;;;8.90;;
8317;SDS011;4196;48.926;8.964;2022-09-24T13:18:18;9.50;;;7.63;;
8317;SDS011;4196;48.926;8.964;2022-09-24T13:21:17;11.87;;;9.27;;
8317;SDS011;4196;48.926;8.964;2022-09-24T13:24:10;14.83;;;9.07;;
8317;SDS011;4196;48.926;8.964;2022-09-24T13:30:25;11.57;;;9.13;;
8317;SDS011;4196;48.926;8.964;2022-09-24T13:33:23;14.47;;;9.57;;
8317;SDS011;4196;48.926;8.964;2022-09-24T13:36:18;12.73;;;9.77;;
8317;SDS011;4196;48.926;8.964;2022-09-24T13:39:21;12.43;;;8.53;;
8317;SDS011;4196;48.926;8.964;2022-09-24T13:42:30;8.83;;;7.00;;
8317;SDS011;4196;48.926;8.964;2022-09-24T13:45:21;11.63;;;7.60;;
8317;SDS011;4196;48.926;8.964;2022-09-24T13:51:20;12.30;;;8.40;;
8317;SDS011;4196;48.926;8.964;2022-09-24T13:57:12;11.53;;;8.30;;
8317;SDS011;4196;48.926;8.964;2022-09-24T14:00:16;9.87;;;8.23;;
8317;SDS011;4196;48.926;8.964;2022-09-24T14:03:21;9.50;;;7.70;;
8317;SDS011;4196;48.926;8.964;2022-09-24T14:06:11;9.37;;;7.40;;
8317;SDS011;4196;48.926;8.964;2022-09-24T14:09:00;8.23;;;6.90;;
8317;SDS011;4196;48.926;8.964;2022-09-24T14:11:51;11.23;;;8.43;;
8317;SDS011;4196;48.926;8.964;2022-09-24T14:14:41;9.27;;;7.80;;
8317;SDS011;4196;48.926;8.964;2022-09-24T14:17:32;9.23;;;7.23;;
8317;SDS011;4196;48.926;8.964;2022-09-24T14:20:18;11.63;;;8.33;;
8317;SDS011;4196;48.926;8.964;2022-09-24T14:23:08;11.63;;;7.30;;
8317;SDS011;4196;48.926;8.964;2022-09-24T14:26:03;12.07;;;8.30;;
8317;SDS011;4196;48.926;8.964;2022-09-24T14:28:51;11.43;;;7.80;;
8317;SDS011;4196;48.926;8.964;2022-09-24T14:31:45;10.97;;;8.00;;
8317;SDS011;4196;48.926;8.964;2022-09-24T14:34:33;8.93;;;7.73;;
8317;SDS011;4196;48.926;8.964;2022-09-24T14:40:25;11.57;;;8.57;;
8317;SDS011;4196;48.926;8.964;2022-09-24T14:43:19;10.67;;;7.87;;
8317;SDS011;4196;48.926;8.964;2022-09-24T14:46:17;11.33;;;8.00;;
8317;SDS011;4196;48.926;8.964;2022-09-24T14:49:05;11.97;;;7.90;;
8317;SDS011;4196;48.926;8.964;2022-09-24T14:55:18;11.33;;;8.03;;
8317;SDS011;4196;48.926;8.964;2022-09-24T14:58:20;9.50;;;8.03;;
8317;SDS011;4196;48.926;8.964;2022-09-24T15:01:13;8.93;;;7.43;;
8317;SDS011;4196;48.926;8.964;2022-09-24T15:04:03;10.47;;;6.80;;
8317;SDS011;4196;48.926;8.964;2022-09-24T15:06:53;10.53;;;7.60;;
8317;SDS011;4196;48.926;8.964;2022-09-24T15:09:40;15.73;;;8.37;;
8317;SDS011;4196;48.926;8.964;2022-09-24T15:12:27;13.67;;;8.10;;
8317;SDS011;4196;48.926;8.964;2022-09-24T15:18:02;10.50;;;8.50;;
8317;SDS011;4196;48.926;8.964;2022-09-24T15:20:50;11.97;;;8.20;;
8317;SDS011;4196;48.926;8.964;2022-09-24T15:23:36;11.87;;;8.77;;
8317;SDS011;4196;48.926;8.964;2022-09-24T15:26:30;10.53;;;8.07;;
8317;SDS011;4196;48.926;8.964;2022-09-24T15:29:19;16.40;;;10.13;;
8317;SDS011;4196;48.926;8.964;2022-09-24T15:32:18;13.67;;;9.47;;
8317;SDS011;4196;48.926;8.964;2022-09-24T15:35:05;10.13;;;8.77;;
8317;SDS011;4196;48.926;8.964;2022-09-24T15:37:54;15.80;;;10.07;;
8317;SDS011;4196;48.926;8.964;2022-09-24T15:40:43;12.20;;;8.63;;
8317;SDS011;4196;48.926;8.964;2022-09-24T15:43:30;14.37;;;9.10;;
8317;SDS011;4196;48.926;8.964;2022-09-24T15:46:16;12.03;;;9.50;;
8317;SDS011;4196;48.926;8.964;2022-09-24T15:49:02;12.67;;;9.10;;
8317;SDS011;4196;48.926;8.964;2022-09-24T15:51:51;12.37;;;8.37;;
8317;SDS011;4196;48.926;8.964;2022-09-24T15:54:40;9.93;;;8.07;;
8317;SDS011;4196;48.926;8.964;2022-09-24T15:57:26;12.87;;;8.60;;
8317;SDS011;4196;48.926;8.964;2022-09-24T16:00:13;12.97;;;8.13;;
8317;SDS011;4196;48.926;8.964;2022-09-24T16:03:04;14.70;;;8.53;;
8317;SDS011;4196;48.926;8.964;2022-09-24T16:05:51;10.87;;;8.30;;
8317;SDS011;4196;48.926;8.964;2022-09-24T16:08:38;16.57;;;10.30;;
8317;SDS011;4196;48.926;8.964;2022-09-24T16:11:25;11.13;;;8.50;;
8317;SDS011;4196;48.926;8.964;2022-09-24T16:14:12;14.20;;;8.93;;
8317;SDS011;4196;48.926;8.964;2022-09-24T16:16:58;14.80;;;8.77;;
8317;SDS011;4196;48.926;8.964;2022-09-24T16:19:45;14.03;;;9.13;;
8317;SDS011;4196;48.926;8.964;2022-09-24T16:22:31;11.80;;;8.07;;
8317;SDS011;4196;48.926;8.964;2022-09-24T16:25:17;13.63;;;9.53;;
8317;SDS011;4196;48.926;8.964;2022-09-24T16:28:04;13.60;;;9.73;;
8317;SDS011;4196;48.926;8.964;2022-09-24T16:30:50;11.30;;;8.97;;
8317;SDS011;4196;48.926;8.964;2022-09-24T16:33:37;12.93;;;9.33;;
8317;SDS011;4196;48.926;8.964;2022-09-24T16:36:25;13.17;;;10.00;;
8317;SDS011;4196;48.926;8.964;2022-09-24T16:39:11;18.33;;;9.80;;
8317;SDS011;4196;48.926;8.964;2022-09-24T16:41:58;12.27;;;9.10;;
8317;SDS011;4196;48.926;8.964;2022-09-24T16:44:44;14.10;;;10.67;;
8317;SDS011;4196;48.926;8.964;2022-09-24T16:47:30;12.93;;;9.77;;
8317;SDS011;4196;48.926;8.964;2022-09-24T16:50:17;14.87;;;9.10;;
8317;SDS011;4196;48.926;8.964;2022-09-24T16:53:05;14.33;;;9.77;;
8317;SDS011;4196;48.926;8.964;2022-09-24T16:55:51;13.57;;;10.47;;
8317;SDS011;4196;48.926;8.964;2022-09-24T16:58:46;15.70;;;10.73;;
8317;SDS011;4196;48.926;8.964;2022-09-24T17:01:32;14.60;;;11.83;;
8317;SDS011;4196;48.926;8.964;2022-09-24T17:04:19;14.20;;;9.83;;
8317;SDS011;4196;48.926;8.964;2022-09-24T17:07:07;12.00;;;9.50;;
8317;SDS011;4196;48.926;8.964;2022-09-24T17:09:55;13.13;;;10.03;;
8317;SDS011;4196;48.926;8.964;2022-09-24T17:13:01;13.07;;;9.77;;
8317;SDS011;4196;48.926;8.964;2022-09-24T17:15:47;12.67;;;10.03;;
8317;SDS011;4196;48.926;8.964;2022-09-24T17:18:34;15.50;;;9.67;;
8317;SDS011;4196;48.926;8.964;2022-09-24T17:21:21;13.20;;;10.33;;
8317;SDS011;4196;48.926;8.964;2022-09-24T17:24:08;16.03;;;10.07;;
8317;SDS011;4196;48.926;8.964;2022-09-24T17:26:55;14.30;;;9.43;;
8317;SDS011;4196;48.926;8.964;2022-09-24T17:29:41;12.17;;;9.90;;
8317;SDS011;4196;48.926;8.964;2022-09-24T17:32:28;13.80;;;9.33;;
8317;SDS011;4196;48.926;8.964;2022-09-24T17:35:14;14.23;;;10.07;;
8317;SDS011;4196;48.926;8.964;2022-09-24T17:38:01;12.60;;;8.77;;
8317;SDS011;4196;48.926;8.964;2022-09-24T17:43:44;14.83;;;9.17;;
8317;SDS011;4196;48.926;8.964;2022-09-24T17:46:31;14.00;;;10.13;;
8317;SDS011;4196;48.926;8.964;2022-09-24T17:49:20;14.43;;;10.37;;
8317;SDS011;4196;48.926;8.964;2022-09-24T17:52:07;16.27;;;12.03;;
8317;SDS011;4196;48.926;8.964;2022-09-24T17:54:54;17.80;;;11.40;;
8317;SDS011;4196;48.926;8.964;2022-09-24T17:57:40;16.97;;;11.63;;
8317;SDS011;4196;48.926;8.964;2022-09-24T18:00:26;15.17;;;11.30;;
8317;SDS011;4196;48.926;8.964;2022-09-24T18:03:13;14.57;;;10.10;;
8317;SDS011;4196;48.926;8.964;2022-09-24T18:06:04;14.23;;;10.53;;
8317;SDS011;4196;48.926;8.964;2022-09-24T18:08:52;14.03;;;10.03;;
8317;SDS011;4196;48.926;8.964;2022-09-24T18:11:40;15.37;;;10.73;;
8317;SDS011;4196;48.926;8.964;2022-09-24T18:14:34;17.60;;;12.97;;
8317;SDS011;4196;48.926;8.964;2022-09-24T18:17:20;16.83;;;12.33;;
8317;SDS011;4196;48.926;8.964;2022-09-24T18:20:06;16.77;;;11.93;;
8317;SDS011;4196;48.926;8.964;2022-09-24T18:22:53;16.93;;;12.23;;
8317;SDS011;4196;48.926;8.964;2022-09-24T18:25:40;20.83;;;11.07;;
8317;SDS011;4196;48.926;8.964;2022-09-24T18:28:27;16.53;;;11.43;;
8317;SDS011;4196;48.926;8.964;2022-09-24T18:31:14;16.30;;;12.73;;
8317;SDS011;4196;48.926;8.964;2022-09-24T18:34:02;18.23;;;12.57;;
8317;SDS011;4196;48.926;8.964;2022-09-24T18:36:50;16.47;;;11.97;;
8317;SDS011;4196;48.926;8.964;2022-09-24T18:39:37;23.77;;;12.53;;
8317;SDS011;4196;48.926;8.964;2022-09-24T18:42:23;17.13;;;12.67;;
8317;SDS011;4196;48.926;8.964;2022-09-24T18:45:10;19.07;;;13.17;;
8317;SDS011;4196;48.926;8.964;2022-09-24T18:47:57;19.47;;;12.57;;
8317;SDS011;4196;48.926;8.964;2022-09-24T18:50:43;19.47;;;13.37;;
8317;SDS011;4196;48.926;8.964;2022-09-24T18:53:30;19.43;;;14.33;;
8317;SDS011;4196;48.926;8.964;2022-09-24T18:56:17;17.60;;;13.10;;
8317;SDS011;4196;48.926;8.964;2022-09-24T18:59:05;13.23;;;9.53;;
8317;SDS011;4196;48.926;8.964;2022-09-24T19:01:57;13.37;;;9.37;;
8317;SDS011;4196;48.926;8.964;2022-09-24T19:04:45;11.07;;;7.90;;
8317;SDS011;4196;48.926;8.964;2022-09-24T19:07:31;8.77;;;6.60;;
8317;SDS011;4196;48.926;8.964;2022-09-24T19:10:17;10.17;;;7.03;;
8317;SDS011;4196;48.926;8.964;2022-09-24T19:13:04;8.07;;;6.07;;
8317;SDS011;4196;48.926;8.964;2022-09-24T19:15:51;6.33;;;5.67;;
8317;SDS011;4196;48.926;8.964;2022-09-24T19:18:38;7.93;;;5.13;;
8317;SDS011;4196;48.926;8.964;2022-09-24T19:21:25;6.83;;;5.07;;
8317;SDS011;4196;48.926;8.964;2022-09-24T19:24:12;5.17;;;4.37;;
8317;SDS011;4196;48.926;8.964;2022-09-24T19:26:58;4.93;;;3.90;;
8317;SDS011;4196;48.926;8.964;2022-09-24T19:29:45;5.17;;;3.63;;
8317;SDS011;4196;48.926;8.964;2022-09-24T19:32:32;5.37;;;3.50;;